Consulta los datos en tiempo real de la estación meteorológica de Parc Astronòmic del Montsec
| Hora UTC | 15:30 |
|---|---|
| Temperatura | 16.1 ºC |
| Humedad | 54.0 % |
| Presión | 1011.8 hPa |
| Pluja | 0.0 mm |
| Velocidad viento | 8.0 km/h |
| Dirección viento |
| Temperatura (ºC) | Humedad (%) | Presión (hPa) | Velocidad viento (km/h) | Precipitación (mm) | ||||||||||||
|---|---|---|---|---|---|---|---|---|---|---|---|---|---|---|---|---|
| Hora UTC | Aire | Humedad | Presión | Vel. | Dir. | Vel. Max | Dir. | Intent. máx 5 min. | ||||||||
| 00:15 | 11.4 | 65.0 | 1013.2 | 1.6 | 3.2 | 0.0 | ||||||||||
| 00:30 | 11.0 | 67.0 | 1013.3 | 3.2 | N | 3.2 | N | 0.0 | ||||||||
| 00:45 | 11.2 | 67.0 | 1013.4 | 4.8 | N | 4.8 | N | 0.0 | ||||||||
| 01:00 | 11.3 | 68.0 | 1013.5 | 3.2 | N | 4.8 | N | 0.0 | ||||||||
| 01:15 | 11.2 | 68.0 | 1013.5 | 8.0 | 8.0 | NNE | 0.0 | |||||||||
| 01:30 | 11.2 | 68.0 | 1013.5 | 4.8 | N | 8.0 | NNE | 0.0 | ||||||||
| 01:45 | 10.6 | 70.0 | 1013.8 | 3.2 | N | 8.0 | NNE | 0.0 | ||||||||
| 02:00 | 9.9 | 72.0 | 1013.8 | 3.2 | N | 8.0 | NNE | 0.0 | ||||||||
| 02:15 | 9.8 | 73.0 | 1013.7 | 12.9 | 12.9 | ENE | 0.0 | |||||||||
| 02:30 | 9.6 | 75.0 | 1013.7 | 11.3 | 12.9 | ENE | 0.0 | |||||||||
| 02:45 | 9.2 | 76.0 | 1013.8 | 12.9 | ENE | 0.0 | ||||||||||
| 03:00 | 8.9 | 77.0 | 1013.6 | 1.6 | 12.9 | ENE | 0.0 | |||||||||
| 03:15 | 8.5 | 78.0 | 1013.6 | 4.8 | 12.9 | ENE | 0.0 | |||||||||
| 03:30 | 8.7 | 79.0 | 1013.4 | 3.2 | N | 12.9 | ENE | 0.0 | ||||||||
| 03:45 | 9.2 | 76.0 | 1013.3 | 3.2 | 12.9 | ENE | 0.0 | |||||||||
| 04:00 | 8.8 | 78.0 | 1013.4 | NNE | 12.9 | ENE | 0.0 | |||||||||
| 04:15 | 8.6 | 79.0 | 1013.4 | 3.2 | 12.9 | ENE | 0.0 | |||||||||
| 04:30 | 8.2 | 80.0 | 1013.5 | NNE | 12.9 | ENE | 0.0 | |||||||||
| 04:45 | 8.5 | 80.0 | 1013.5 | 12.9 | ENE | 0.0 | ||||||||||
| 05:00 | 8.6 | 79.0 | 1013.4 | 12.9 | ENE | 0.0 | ||||||||||
| 05:15 | 8.7 | 79.0 | 1013.4 | 3.2 | 12.9 | ENE | 0.0 | |||||||||
| 05:30 | 8.2 | 79.0 | 1013.4 | 1.6 | N | 12.9 | ENE | 0.0 | ||||||||
| 05:45 | 8.6 | 79.0 | 1013.2 | 1.6 | 12.9 | ENE | 0.0 | |||||||||
| 06:00 | 8.1 | 79.0 | 1013.3 | NNE | 12.9 | ENE | 0.0 | |||||||||
| 06:15 | 7.4 | 81.0 | 1013.4 | 12.9 | ENE | 0.0 | ||||||||||
| 06:30 | 7.9 | 84.0 | 1013.3 | 1.6 | N | 12.9 | ENE | 0.0 | ||||||||
| 06:45 | 7.5 | 83.0 | 1013.4 | 3.2 | 12.9 | ENE | 0.0 | |||||||||
| 07:00 | 8.4 | 81.0 | 1013.5 | 12.9 | ENE | 0.0 | ||||||||||
| 07:15 | 8.2 | 80.0 | 1013.5 | NNE | 12.9 | ENE | 0.0 | |||||||||
| 07:30 | 8.0 | 82.0 | 1013.5 | NNE | 12.9 | ENE | 0.0 | |||||||||
| 07:45 | 7.7 | 83.0 | 1013.6 | 12.9 | ENE | 0.0 | ||||||||||
| 08:00 | 7.9 | 85.0 | 1013.9 | 12.9 | ENE | 0.0 | ||||||||||
| 08:15 | 9.2 | 83.0 | 1013.9 | 12.9 | ENE | 0.0 | ||||||||||
| 08:30 | 9.9 | 81.0 | 1014.0 | NNE | 12.9 | ENE | 0.0 | |||||||||
| 08:45 | 11.1 | 77.0 | 1013.9 | 12.9 | ENE | 0.0 | ||||||||||
| 09:00 | 11.8 | 75.0 | 1014.0 | 1.6 | N | 12.9 | ENE | 0.0 | ||||||||
| 09:15 | 12.1 | 75.0 | 1014.0 | NNE | 12.9 | ENE | 0.0 | |||||||||
| 09:30 | 12.4 | 74.0 | 1014.1 | 3.2 | N | 12.9 | ENE | 0.0 | ||||||||
| 09:45 | 12.4 | 73.0 | 1014.1 | 6.4 | 12.9 | ENE | 0.0 | |||||||||
| 10:00 | 12.9 | 73.0 | 1013.9 | 1.6 | N | 12.9 | ENE | 0.0 | ||||||||
| 10:15 | 13.3 | 70.0 | 1013.9 | 8.0 | N | 12.9 | ENE | 0.0 | ||||||||
| 10:30 | 13.9 | 66.0 | 1014.0 | 4.8 | 12.9 | ENE | 0.0 | |||||||||
| 10:45 | 14.1 | 63.0 | 1014.0 | 3.2 | 12.9 | ENE | 0.0 | |||||||||
| 11:00 | 14.8 | 60.0 | 1013.9 | 6.4 | N | 12.9 | ENE | 0.0 | ||||||||
| 11:15 | 14.8 | 60.0 | 1013.8 | 6.4 | 12.9 | ENE | 0.0 | |||||||||
| 11:30 | 15.5 | 58.0 | 1013.8 | 9.7 | 12.9 | ENE | 0.0 | |||||||||
| 11:45 | 15.9 | 57.0 | 1013.6 | 12.9 | ENE | 0.0 | ||||||||||
| 12:00 | 16.2 | 56.0 | 1013.7 | 9.7 | N | 12.9 | ENE | 0.0 | ||||||||
| 12:15 | 16.1 | 53.0 | 1013.6 | 8.0 | 12.9 | ENE | 0.0 | |||||||||
| 12:30 | 16.4 | 54.0 | 1013.4 | 12.9 | NNE | 12.9 | NNE | 0.0 | ||||||||
| 12:45 | 15.8 | 57.0 | 1013.4 | 4.8 | 12.9 | NNE | 0.0 | |||||||||
| 13:00 | 16.2 | 57.0 | 1013.4 | 8.0 | 12.9 | NNE | 0.0 | |||||||||
| 13:15 | 17.1 | 55.0 | 1013.1 | 4.8 | 12.9 | NNE | 0.0 | |||||||||
| 13:30 | 16.8 | 53.0 | 1012.9 | 6.4 | 12.9 | NNE | 0.0 | |||||||||
| 13:45 | 17.3 | 51.0 | 1012.7 | 4.8 | N | 12.9 | NNE | 0.0 | ||||||||
| 14:00 | 17.5 | 52.0 | 1012.3 | 4.8 | 12.9 | NNE | 0.0 | |||||||||
| 14:15 | 17.4 | 49.0 | 1012.2 | 3.2 | 12.9 | NNE | 0.0 | |||||||||
| 14:30 | 17.4 | 53.0 | 1012.1 | 4.8 | N | 12.9 | NNE | 0.0 | ||||||||
| 14:45 | 17.1 | 51.0 | 1012.1 | 6.4 | N | 12.9 | NNE | 0.0 | ||||||||
| 15:00 | 17.2 | 52.0 | 1012.0 | 11.3 | NNE | 12.9 | NNE | 0.0 | ||||||||
| 15:15 | 16.7 | 52.0 | 1011.9 | 11.3 | 12.9 | NNE | 0.0 | |||||||||
| 15:30 | 16.1 | 54.0 | 1011.8 | 8.0 | 12.9 | NNE | 0.0 | |||||||||
| Máxima | 17.5 | 85.0 | 1014.1 | 12.9 | NNE | 12.9 | NNE | 0.0 | ||||||||
| Mínima | 7.4 | 49.0 | 1011.8 | |||||||||||||
| Total | 0.0 | |||||||||||||||